首页
METAR-TAF:

METAR-TAF

机场 :

乔莫·肯雅塔国际机场

奈洛比, 肯尼亚

纬度: 01-19S, 经度: 036-55E, 海拔: 1624米

当前天气观测

该预报发布于51分钟前的16:00 UTC
风速10节,风向
温度 21°C
湿度 78%
气压 1019 hPa
能见度10公里或以上
少量云层高于2600英尺, 积雨云.
散云层高于27000英尺

METAR: HKJK 021600Z 09010KT 9999 FEW026CB SCT270 21/17 Q1019 NOSIG

时间: 19:51 (16:51 UTC)

预报

该预报发布于5小时和51分钟前的11:00 UTC
预报有效从02日的 12点(UTC)到 03日的 18点(UTC)
风速10节,风向东转东北
能见度10公里或以上
多云层高于2500英尺
短暂存在
从 02日的 12点(UTC)到 02日的 18点(UTC)
少量云层高于2600英尺, 积雨云.
散云层高于2800英尺
成为
从 02日的 20点(UTC)到 02日的 23点(UTC)
能见度10公里或以上
1500米以下无云,无积雨云
短暂存在
从 03日的 00点(UTC)到 03日的 06点(UTC)
风速2节,风向多变
能见度10公里或以上
散云层高于500英尺
多云层高于1500英尺
成为
从 03日的 08点(UTC)到 03日的 11点(UTC)
风速10节,风向东转东北
多云层高于2500英尺
成为
从 03日的 12点(UTC)到 03日的 18点(UTC)
少量云层高于2600英尺, 积雨云.
多云层高于2700英尺

TAF: HKJK 021100Z 0212/0318 06010KT 9999 BKN025 TEMPO 0212/0218 FEW026CB SCT028 BECMG 0220/0223 CAVOK TEMPO 0300/0306 VRB02KT 9999 SCT005 BKN015 BECMG 0308/0311 06010KT BKN025 BECMG 0312/0318 FEW026CB BKN027

超过4000个机场的气象观测和天气预报(METAR&TAF报告)。

可查询的气象台以黄色和红色小点在地图上表示。

将鼠标移到小点上方,可查看气象台名称。

然后点击查看天气观测和预报。

如需切换地图:点击带黑十字的绿色按钮放大地图;点击带横线的绿色按钮缩小地图;或者点击绿色箭头查看邻近地区的地图。


METAR-TAF: